Terminal Aerodrome Forecast
Issued by NWS

Home | Current Version | Previous Version | Text Only | Print | Product List | Glossary On
Versions: 1 2 3 4 5 6 7 8 9 10 11 12 13 14 15 16 17 18 19 20
721
FTUS46 KMFR 190549
TAFOTH
TAF
KOTH 190549Z 1906/2006 20009G15KT P6SM -SHRA BKN015 OVC025
     FM191000 20010G16KT P6SM -SHRA BKN025 OVC035
     FM192100 21010KT P6SM -SHRA SCT025 OVC035
     FM200000 17008KT P6SM OVC100=

USA.gov is the U.S. government's official web portal to all federal, state and local government web resources and services.